Time;durP1;ratioP1;P1;durP2;ratioP2;P2;SDS_P1;SDS_P2;PMS_P1;PMS_P2;Temp;Humidity;BMP_temperature;BMP_pressure;BME280_temperature;BME280_humidity;BME280_pressure;Samples;Min_cycle;Max_cycle;Signal;HPM_P1;HPM_P2
2023/07/26 00:00:08;;;;;;;5.47;4.35;;;12.90;99.90;;;;;;6069867;23;20048;-86
2023/07/26 00:02:33;;;;;;;4.80;3.67;;;12.90;99.90;;;;;;6069390;23;20026;-85
2023/07/26 00:04:59;;;;;;;5.55;3.97;;;12.90;99.90;;;;;;6093958;23;20018;-85
2023/07/26 00:07:25;;;;;;;8.88;4.68;;;12.90;99.90;;;;;;6068597;23;20021;-86
2023/07/26 00:09:50;;;;;;;5.50;4.50;;;12.90;99.90;;;;;;6069689;23;20385;-86
2023/07/26 00:12:16;;;;;;;9.55;4.80;;;12.80;99.90;;;;;;6045887;23;20015;-85
2023/07/26 00:14:42;;;;;;;6.07;4.43;;;12.80;99.90;;;;;;6069526;23;20437;-85
2023/07/26 00:17:08;;;;;;;7.82;5.05;;;12.80;99.90;;;;;;6069507;23;20382;-84
2023/07/26 00:19:33;;;;;;;7.93;4.40;;;12.80;99.90;;;;;;6069297;23;20014;-85
2023/07/26 00:21:59;;;;;;;6.55;4.47;;;12.80;99.90;;;;;;6045497;23;20014;-85
2023/07/26 00:24:25;;;;;;;6.25;4.88;;;12.80;99.90;;;;;;6070403;23;20018;-85
2023/07/26 00:26:51;;;;;;;10.10;5.28;;;12.70;99.90;;;;;;6047422;23;20623;-85
2023/07/26 00:29:16;;;;;;;5.65;4.88;;;12.70;99.90;;;;;;6072054;23;20011;-85
2023/07/26 00:31:42;;;;;;;9.32;5.50;;;12.70;99.90;;;;;;6070791;23;20031;-85
2023/07/26 00:34:08;;;;;;;7.43;4.47;;;12.80;99.90;;;;;;6095375;23;20421;-85
2023/07/26 00:36:34;;;;;;;7.28;4.93;;;12.70;99.90;;;;;;6071186;23;20046;-86
2023/07/26 00:39:00;;;;;;;10.00;5.25;;;12.70;99.90;;;;;;6095100;23;20142;-85
2023/07/26 00:41:25;;;;;;;6.70;4.95;;;12.70;99.90;;;;;;6095103;23;20022;-85
2023/07/26 00:43:51;;;;;;;5.65;4.60;;;12.70;99.90;;;;;;6095407;23;20407;-85
2023/07/26 00:46:17;;;;;;;6.18;5.03;;;12.70;99.90;;;;;;6047276;23;20010;-85
2023/07/26 00:48:43;;;;;;;6.78;4.90;;;12.70;99.90;;;;;;6047170;23;20027;-86
2023/07/26 00:51:09;;;;;;;9.00;5.32;;;12.80;99.90;;;;;;6071050;23;20015;-85
2023/07/26 00:53:35;;;;;;;6.35;5.05;;;12.70;99.90;;;;;;6046964;23;20018;-85
2023/07/26 00:56:02;;;;;;;8.60;5.45;;;12.70;99.90;;;;;;6070397;23;20019;-85
2023/07/26 00:58:28;;;;;;;7.53;4.88;;;12.70;99.90;;;;;;6071113;23;20393;-86
2023/07/26 01:00:55;;;;;;;7.68;4.80;;;12.70;99.90;;;;;;6070682;23;20014;-85
2023/07/26 01:03:21;;;;;;;7.32;5.30;;;12.70;99.90;;;;;;6094052;23;20022;-86
2023/07/26 01:06:19;;;;;;;6.43;4.85;;;12.70;99.90;;;;;;6093889;23;20018;-85
2023/07/26 01:09:13;;;;;;;7.25;5.00;;;12.70;99.90;;;;;;6094592;23;20057;-85
2023/07/26 01:11:41;;;;;;;8.20;5.18;;;12.80;99.90;;;;;;6094210;23;20029;-86
2023/07/26 01:14:25;;;;;;;7.45;4.75;;;12.70;99.90;;;;;;6094132;23;20120;-85
2023/07/26 01:16:51;;;;;;;5.55;4.72;;;12.70;99.90;;;;;;6093796;23;20344;-85
2023/07/26 01:19:17;;;;;;;7.15;4.63;;;12.70;99.90;;;;;;6094883;23;20061;-86
2023/07/26 01:21:42;;;;;;;8.00;4.88;;;12.70;99.90;;;;;;6070197;23;20380;-84
2023/07/26 01:24:08;;;;;;;5.72;4.40;;;12.60;99.90;;;;;;6046934;23;20022;-85
2023/07/26 01:26:34;;;;;;;6.38;4.80;;;12.50;99.90;;;;;;6047047;23;20014;-85
2023/07/26 01:28:59;;;;;;;6.07;4.88;;;12.60;99.90;;;;;;6070687;23;20026;-85
2023/07/26 01:31:25;;;;;;;6.35;4.78;;;12.60;99.90;;;;;;6070657;23;20022;-85
2023/07/26 01:33:52;;;;;;;6.45;5.15;;;12.60;99.90;;;;;;6094654;23;20010;-85
2023/07/26 01:36:29;;;;;;;7.47;5.40;;;12.60;99.90;;;;;;6093692;23;20467;-85
2023/07/26 01:38:57;;;;;;;6.35;5.00;;;12.60;99.90;;;;;;6070957;23;20310;-85
2023/07/26 01:41:23;;;;;;;5.80;5.13;;;12.70;99.90;;;;;;6094312;23;20045;-85
2023/07/26 01:43:49;;;;;;;5.57;4.65;;;12.70;99.90;;;;;;6094327;23;20101;-86
2023/07/26 01:46:15;;;;;;;7.28;4.85;;;12.70;99.90;;;;;;6046106;23;20464;-85
2023/07/26 01:48:41;;;;;;;7.15;5.25;;;12.70;99.90;;;;;;6093949;23;20011;-86
2023/07/26 01:51:07;;;;;;;7.57;5.07;;;12.80;99.90;;;;;;6094255;23;20015;-85
2023/07/26 01:53:34;;;;;;;8.38;5.40;;;12.80;99.90;;;;;;6093858;23;20029;-86
2023/07/26 01:56:03;;;;;;;9.02;5.20;;;12.80;99.90;;;;;;6070457;23;20093;-85
2023/07/26 01:58:29;;;;;;;5.40;4.82;;;12.80;99.90;;;;;;6093788;23;20026;-85
2023/07/26 02:00:55;;;;;;;5.40;4.65;;;12.80;99.90;;;;;;6094164;23;20065;-85
2023/07/26 02:03:21;;;;;;;8.48;5.22;;;12.90;99.90;;;;;;6094022;23;20381;-85
2023/07/26 02:05:47;;;;;;;5.95;4.82;;;12.90;99.90;;;;;;6070654;23;20014;-86
2023/07/26 02:08:16;;;;;;;6.82;4.63;;;12.90;99.90;;;;;;6046184;23;20459;-85
2023/07/26 02:10:42;;;;;;;6.25;4.53;;;12.90;99.90;;;;;;6096191;23;20017;-85
2023/07/26 02:13:08;;;;;;;5.10;4.18;;;12.90;99.90;;;;;;6094184;23;20014;-85
2023/07/26 02:15:34;;;;;;;7.28;4.70;;;12.90;99.90;;;;;;6069900;23;20017;-86
2023/07/26 02:18:00;;;;;;;7.13;4.70;;;12.90;99.90;;;;;;6070475;23;20069;-85
2023/07/26 02:20:26;;;;;;;6.40;4.68;;;13.00;99.90;;;;;;6070245;23;20014;-85
2023/07/26 02:22:52;;;;;;;6.05;4.60;;;12.90;99.90;;;;;;6094227;23;20014;-86
2023/07/26 02:25:17;;;;;;;6.70;4.65;;;12.90;99.90;;;;;;6093937;23;20018;-86
2023/07/26 02:27:43;;;;;;;6.82;4.93;;;12.90;99.90;;;;;;6094009;23;20025;-86
2023/07/26 02:30:09;;;;;;;7.85;4.80;;;12.90;99.90;;;;;;6070069;23;20437;-86
2023/07/26 02:32:35;;;;;;;6.70;4.72;;;12.90;99.90;;;;;;6093613;23;20022;-86
2023/07/26 02:35:00;;;;;;;6.95;4.70;;;12.90;99.90;;;;;;6070100;23;20010;-86
2023/07/26 02:37:26;;;;;;;5.95;4.65;;;12.90;99.90;;;;;;6069935;23;20014;-84
2023/07/26 02:39:52;;;;;;;6.40;4.55;;;12.80;99.90;;;;;;6094224;23;20381;-85
2023/07/26 02:42:18;;;;;;;7.10;4.82;;;12.80;99.90;;;;;;6070018;23;20077;-86
2023/07/26 02:44:47;;;;;;;7.60;5.00;;;12.80;99.90;;;;;;6093622;23;20356;-85
2023/07/26 02:47:13;;;;;;;8.02;5.35;;;12.80;99.90;;;;;;6093906;23;20113;-86
2023/07/26 02:49:39;;;;;;;8.02;4.68;;;12.80;99.90;;;;;;6094103;23;20033;-85
2023/07/26 02:52:05;;;;;;;7.00;4.65;;;12.70;99.90;;;;;;6069971;23;20019;-86
2023/07/26 02:54:31;;;;;;;7.30;4.82;;;12.70;99.90;;;;;;6093927;23;20018;-85
2023/07/26 02:56:56;;;;;;;6.45;5.15;;;12.70;99.90;;;;;;6093612;23;20030;-85
2023/07/26 02:59:22;;;;;;;7.47;4.80;;;12.60;99.90;;;;;;6069721;23;20445;-86
2023/07/26 03:01:48;;;;;;;9.57;5.63;;;12.60;99.90;;;;;;6093030;23;20105;-86
2023/07/26 03:04:14;;;;;;;7.97;4.88;;;12.60;99.90;;;;;;6093280;23;20345;-85
2023/07/26 03:06:41;;;;;;;5.82;5.00;;;12.60;99.90;;;;;;6069155;23;20025;-86
2023/07/26 03:09:06;;;;;;;8.30;5.30;;;12.50;99.90;;;;;;6068856;23;20014;-86
2023/07/26 03:11:32;;;;;;;6.10;5.30;;;12.50;99.90;;;;;;6069220;23;20010;-86
2023/07/26 03:13:58;;;;;;;9.65;5.68;;;12.50;99.90;;;;;;6069362;23;20018;-86
2023/07/26 03:16:23;;;;;;;7.70;5.32;;;12.40;99.90;;;;;;6069705;23;20547;-85
2023/07/26 03:18:49;;;;;;;7.85;6.05;;;12.40;99.90;;;;;;6069517;23;20010;-86
2023/07/26 03:21:15;;;;;;;9.10;6.40;;;12.40;99.90;;;;;;6093825;23;20014;-86
2023/07/26 03:23:41;;;;;;;8.00;5.55;;;12.40;99.90;;;;;;6069550;23;20069;-86
2023/07/26 03:26:07;;;;;;;10.32;6.15;;;12.30;99.90;;;;;;6070301;23;20014;-85
2023/07/26 03:28:32;;;;;;;7.75;5.82;;;12.30;99.90;;;;;;6069646;23;20015;-86
2023/07/26 03:31:00;;;;;;;6.00;5.22;;;12.30;99.90;;;;;;6045831;23;20204;-85
2023/07/26 03:33:25;;;;;;;8.65;5.95;;;12.30;99.90;;;;;;6069386;23;20052;-85
2023/07/26 03:35:52;;;;;;;9.70;6.22;;;12.30;99.90;;;;;;6069855;23;20014;-86
2023/07/26 03:38:17;;;;;;;10.40;6.43;;;12.30;99.90;;;;;;6093185;23;20014;-85
2023/07/26 03:40:43;;;;;;;8.02;5.80;;;12.30;99.90;;;;;;6069689;23;20101;-86
2023/07/26 03:43:09;;;;;;;7.57;5.97;;;12.30;99.90;;;;;;6069360;23;20018;-86
2023/07/26 03:45:35;;;;;;;8.20;6.15;;;12.30;99.90;;;;;;6068846;23;20093;-86
2023/07/26 03:48:01;;;;;;;8.15;6.50;;;12.30;99.90;;;;;;6066647;23;20348;-86
2023/07/26 03:50:26;;;;;;;8.30;6.70;;;12.30;99.90;;;;;;6091216;23;20124;-86
2023/07/26 03:52:52;;;;;;;8.95;6.20;;;12.30;99.90;;;;;;6090950;23;20397;-85
2023/07/26 03:55:18;;;;;;;7.53;5.60;;;12.30;99.90;;;;;;6066658;23;20014;-85
2023/07/26 03:57:44;;;;;;;6.05;5.43;;;12.30;99.90;;;;;;6043545;23;20026;-85
2023/07/26 04:00:10;;;;;;;7.35;6.10;;;12.30;99.90;;;;;;6092944;23;20016;-85
2023/07/26 04:02:36;;;;;;;6.10;5.50;;;12.30;99.90;;;;;;6093191;23;20439;-85
2023/07/26 04:05:02;;;;;;;10.73;5.93;;;12.40;99.90;;;;;;6045252;23;20010;-85
2023/07/26 04:07:28;;;;;;;8.35;6.47;;;12.30;99.90;;;;;;6069478;23;20102;-86
2023/07/26 04:09:53;;;;;;;7.82;5.95;;;12.40;99.90;;;;;;6068980;23;20146;-85
2023/07/26 04:12:19;;;;;;;8.38;6.45;;;12.40;99.90;;;;;;6092920;23;20018;-85
2023/07/26 04:14:45;;;;;;;7.72;6.88;;;12.50;99.90;;;;;;6045455;23;20007;-85
2023/07/26 04:17:11;;;;;;;8.07;6.43;;;12.50;99.90;;;;;;6069427;23;20385;-85
2023/07/26 04:19:36;;;;;;;7.20;6.50;;;12.50;99.90;;;;;;6045281;23;20069;-85
2023/07/26 04:22:02;;;;;;;9.32;6.50;;;12.60;99.90;;;;;;6069107;23;20010;-85
2023/07/26 04:24:28;;;;;;;9.05;6.18;;;12.60;99.90;;;;;;6093312;23;20082;-85
2023/07/26 04:26:53;;;;;;;8.65;6.35;;;12.60;99.90;;;;;;6045035;23;20025;-85
2023/07/26 04:29:19;;;;;;;6.78;6.13;;;12.60;99.90;;;;;;6068955;23;20018;-85
2023/07/26 04:31:45;;;;;;;7.13;6.43;;;12.60;99.90;;;;;;6093205;23;20365;-85
2023/07/26 04:34:14;;;;;;;8.80;6.00;;;12.60;99.90;;;;;;6069810;23;20022;-85
2023/07/26 04:36:41;;;;;;;8.77;6.55;;;12.60;99.90;;;;;;6092994;23;20018;-86
2023/07/26 04:39:07;;;;;;;6.85;5.97;;;12.60;99.90;;;;;;6093720;23;20020;-84
2023/07/26 04:41:33;;;;;;;8.85;6.43;;;12.60;99.90;;;;;;6094257;23;20049;-84
2023/07/26 04:43:58;;;;;;;9.00;6.43;;;12.60;99.90;;;;;;6045637;23;20026;-84
2023/07/26 04:46:24;;;;;;;10.52;6.75;;;12.70;99.90;;;;;;6093568;23;20012;-85
2023/07/26 04:48:50;;;;;;;8.48;6.68;;;12.70;99.90;;;;;;6069880;23;20429;-84
2023/07/26 04:51:16;;;;;;;7.03;6.22;;;12.70;99.90;;;;;;6094079;23;20014;-84
2023/07/26 04:53:41;;;;;;;7.97;6.00;;;12.70;99.90;;;;;;6069932;23;20053;-82
2023/07/26 04:56:07;;;;;;;8.30;6.15;;;12.70;99.90;;;;;;6093381;23;20084;-84
2023/07/26 04:58:33;;;;;;;9.65;6.43;;;12.70;99.90;;;;;;6093461;23;20540;-84
2023/07/26 05:00:59;;;;;;;9.30;6.90;;;12.70;99.90;;;;;;6046038;23;20056;-84
2023/07/26 05:03:24;;;;;;;7.35;6.40;;;12.70;99.90;;;;;;6093568;23;20014;-84
2023/07/26 05:05:51;;;;;;;7.45;5.80;;;12.80;99.90;;;;;;6046015;23;20104;-84
2023/07/26 05:08:18;;;;;;;7.72;5.88;;;12.80;99.90;;;;;;6069552;23;20074;-83
2023/07/26 05:10:47;;;;;;;8.32;5.20;;;12.80;99.90;;;;;;6094849;23;20018;-84
2023/07/26 05:13:13;;;;;;;7.35;4.90;;;12.80;99.90;;;;;;6093437;23;20073;-84
2023/07/26 05:15:38;;;;;;;8.23;5.30;;;12.80;99.90;;;;;;6069100;23;20046;-83
2023/07/26 05:18:04;;;;;;;10.02;5.30;;;12.80;99.90;;;;;;6093682;23;20098;-81
2023/07/26 05:20:30;;;;;;;5.80;4.97;;;12.80;99.90;;;;;;6093582;23;20015;-82
2023/07/26 05:22:55;;;;;;;7.63;4.90;;;12.80;99.90;;;;;;6093613;23;20021;-82
2023/07/26 05:25:21;;;;;;;6.68;4.88;;;12.80;99.90;;;;;;6069467;23;20018;-82
2023/07/26 05:27:47;;;;;;;6.20;4.50;;;12.80;99.90;;;;;;6069100;23;20022;-82
2023/07/26 05:30:17;;;;;;;6.53;4.50;;;12.90;99.90;;;;;;6044595;23;20057;-82
2023/07/26 05:32:43;;;;;;;6.55;5.13;;;12.90;99.90;;;;;;6068702;23;20101;-82
2023/07/26 05:35:11;;;;;;;6.97;5.35;;;13.00;99.90;;;;;;6044851;23;20457;-82
2023/07/26 05:37:38;;;;;;;6.35;5.38;;;13.10;99.90;;;;;;6045678;23;20014;-82
2023/07/26 05:40:05;;;;;;;7.30;4.82;;;13.20;99.90;;;;;;6068375;23;20018;-82
2023/07/26 05:42:31;;;;;;;5.43;4.68;;;13.30;99.90;;;;;;6091573;23;20019;-83
2023/07/26 05:44:57;;;;;;;5.15;4.07;;;13.40;99.90;;;;;;6068605;23;20014;-81
2023/07/26 05:47:23;;;;;;;4.80;4.30;;;13.40;99.90;;;;;;6068975;23;20025;-82
2023/07/26 05:49:49;;;;;;;4.93;4.10;;;13.50;99.90;;;;;;6069567;23;20099;-82
2023/07/26 05:52:15;;;;;;;5.38;3.72;;;13.40;99.90;;;;;;6092638;23;20022;-82
2023/07/26 05:54:41;;;;;;;6.63;4.32;;;13.50;99.90;;;;;;6069035;23;20093;-82
2023/07/26 05:57:06;;;;;;;5.82;3.85;;;13.50;99.90;;;;;;6092831;23;20557;-82
2023/07/26 05:59:32;;;;;;;5.72;4.07;;;13.50;99.90;;;;;;6069062;23;20017;-81
2023/07/26 06:02:00;;;;;;;4.97;3.95;;;13.50;99.90;;;;;;6092281;23;20055;-82
2023/07/26 06:04:28;;;;;;;5.85;4.10;;;13.60;99.90;;;;;;6069580;23;20018;-82
2023/07/26 06:06:57;;;;;;;5.53;3.85;;;13.60;99.90;;;;;;6093064;23;20093;-82
2023/07/26 06:09:25;;;;;;;5.78;4.00;;;13.70;99.90;;;;;;6069847;23;20019;-82
2023/07/26 06:11:51;;;;;;;4.75;3.90;;;13.70;99.90;;;;;;6092986;23;20082;-82
2023/07/26 06:14:17;;;;;;;4.60;3.60;;;13.80;99.90;;;;;;6069631;23;20014;-83
2023/07/26 06:16:43;;;;;;;5.15;3.50;;;13.90;99.90;;;;;;6093061;23;20029;-82
2023/07/26 06:19:08;;;;;;;4.30;3.58;;;13.90;99.90;;;;;;6068848;23;20018;-81
2023/07/26 06:21:34;;;;;;;4.95;3.33;;;13.90;99.90;;;;;;6092228;23;20029;-82
2023/07/26 06:24:00;;;;;;;5.93;3.67;;;13.90;99.90;;;;;;6092654;23;20805;-82
2023/07/26 06:26:25;;;;;;;4.30;3.42;;;13.80;99.90;;;;;;6068635;23;20081;-82
2023/07/26 06:28:51;;;;;;;5.25;3.78;;;13.90;99.90;;;;;;6092413;23;20010;-82
2023/07/26 06:31:17;;;;;;;3.65;3.20;;;13.80;99.90;;;;;;6068896;23;20348;-82
2023/07/26 06:33:43;;;;;;;4.75;3.42;;;13.90;99.90;;;;;;6069120;23;20023;-81
2023/07/26 06:36:08;;;;;;;5.50;3.95;;;13.80;99.90;;;;;;6092854;23;20101;-82
2023/07/26 06:38:34;;;;;;;4.75;3.83;;;13.90;99.90;;;;;;6092558;23;20014;-81
2023/07/26 06:41:04;;;;;;;4.57;3.58;;;14.00;99.90;;;;;;6068819;23;20139;-82
2023/07/26 06:43:30;;;;;;;4.88;4.05;;;14.00;99.90;;;;;;6092667;23;20101;-82
2023/07/26 06:45:56;;;;;;;4.90;3.90;;;14.10;99.90;;;;;;6092373;23;20057;-81
2023/07/26 06:48:21;;;;;;;6.25;3.90;;;14.10;99.90;;;;;;6069160;23;20014;-82
2023/07/26 06:50:47;;;;;;;4.70;4.30;;;14.10;99.90;;;;;;6068604;23;20046;-82
2023/07/26 06:53:13;;;;;;;4.88;4.32;;;14.10;99.90;;;;;;6092281;23;20053;-82
2023/07/26 06:55:39;;;;;;;4.70;4.07;;;14.10;99.90;;;;;;6092005;23;20054;-81
2023/07/26 06:58:05;;;;;;;5.32;4.20;;;14.10;99.90;;;;;;6067988;23;20014;-82
2023/07/26 07:00:31;;;;;;;5.40;4.47;;;14.10;99.90;;;;;;6068603;23;20014;-81
2023/07/26 07:02:58;;;;;;;4.90;4.38;;;14.00;99.90;;;;;;6092759;23;20014;-82
2023/07/26 07:05:25;;;;;;;6.50;4.30;;;14.00;99.90;;;;;;6068747;23;20045;-82
2023/07/26 07:07:51;;;;;;;5.45;4.38;;;14.00;99.90;;;;;;6068759;23;20077;-81
2023/07/26 07:10:17;;;;;;;5.68;4.65;;;14.00;99.90;;;;;;6068872;23;20592;-81
2023/07/26 07:12:42;;;;;;;6.55;4.47;;;14.00;99.90;;;;;;6044432;23;20029;-81
2023/07/26 07:15:09;;;;;;;6.45;4.60;;;14.00;99.90;;;;;;6044494;23;20014;-80
2023/07/26 07:17:34;;;;;;;5.35;4.53;;;14.00;99.90;;;;;;6092693;23;20454;-82
2023/07/26 07:20:00;;;;;;;6.60;4.80;;;14.00;99.90;;;;;;6092546;23;20014;-83
2023/07/26 07:22:27;;;;;;;6.78;4.90;;;14.00;99.90;;;;;;6044408;23;20050;-82
2023/07/26 07:24:53;;;;;;;7.32;5.15;;;14.00;99.90;;;;;;6092065;23;20098;-81
2023/07/26 07:27:23;;;;;;;8.18;5.75;;;13.90;99.90;;;;;;6092211;23;20528;-80
2023/07/26 07:29:49;;;;;;;10.20;5.57;;;13.90;99.90;;;;;;6092957;23;20036;-80
2023/07/26 07:32:14;;;;;;;7.47;5.60;;;13.80;99.90;;;;;;6093714;23;20014;-81
2023/07/26 07:34:40;;;;;;;6.18;5.43;;;13.80;99.90;;;;;;6092509;23;20161;-79
2023/07/26 07:37:06;;;;;;;7.93;5.05;;;13.70;99.90;;;;;;6092735;23;20015;-81
2023/07/26 07:39:32;;;;;;;8.25;5.30;;;13.70;99.90;;;;;;6044207;23;20034;-79
2023/07/26 07:41:58;;;;;;;7.90;4.80;;;13.70;99.90;;;;;;6092393;23;20021;-79
2023/07/26 07:44:26;;;;;;;7.78;5.05;;;13.70;99.90;;;;;;6092448;23;20018;-80
2023/07/26 07:46:51;;;;;;;6.90;5.50;;;13.70;99.90;;;;;;6091431;23;20053;-78
2023/07/26 07:49:17;;;;;;;5.57;4.60;;;13.70;99.90;;;;;;6067789;23;20018;-79
2023/07/26 07:51:43;;;;;;;5.82;4.80;;;13.60;99.90;;;;;;6042643;23;20022;-80
2023/07/26 07:54:08;;;;;;;6.10;5.10;;;13.60;99.90;;;;;;6067989;23;20054;-80
2023/07/26 07:56:34;;;;;;;7.78;6.25;;;13.60;99.90;;;;;;6067571;23;20365;-81
2023/07/26 07:59:00;;;;;;;7.00;6.28;;;13.60;99.90;;;;;;6092114;23;20023;-79
2023/07/26 08:01:27;;;;;;;10.00;6.85;;;13.60;99.90;;;;;;6067729;23;20389;-79
2023/07/26 08:03:52;;;;;;;7.70;6.57;;;13.50;99.90;;;;;;6093159;23;20026;-79
2023/07/26 08:06:19;;;;;;;10.38;6.95;;;13.60;99.90;;;;;;6069830;23;20022;-81
2023/07/26 08:08:44;;;;;;;8.52;6.30;;;13.60;99.90;;;;;;6044692;23;20531;-80
2023/07/26 08:11:10;;;;;;;8.52;5.63;;;13.50;99.90;;;;;;6067202;23;20018;-81
2023/07/26 08:13:36;;;;;;;6.43;5.07;;;13.60;99.90;;;;;;6067213;23;20018;-79
2023/07/26 08:16:02;;;;;;;6.47;4.70;;;13.60;99.90;;;;;;6067367;23;20074;-80
2023/07/26 08:18:28;;;;;;;5.80;4.35;;;13.60;99.90;;;;;;6067392;23;20018;-79
2023/07/26 08:20:53;;;;;;;5.97;4.07;;;13.70;99.90;;;;;;6092809;23;20025;-81
2023/07/26 08:23:19;;;;;;;3.22;2.92;;;13.80;99.90;;;;;;6093087;23;20105;-80
2023/07/26 08:25:45;;;;;;;4.72;3.30;;;13.80;99.90;;;;;;6091541;23;20021;-79
2023/07/26 08:28:11;;;;;;;3.17;2.63;;;13.90;99.90;;;;;;6067801;23;20471;-80
2023/07/26 08:30:37;;;;;;;4.03;3.20;;;14.10;99.90;;;;;;6043954;23;20037;-81
2023/07/26 08:33:03;;;;;;;5.63;3.58;;;14.20;99.90;;;;;;6091833;23;20023;-81
2023/07/26 08:35:30;;;;;;;4.95;3.58;;;14.20;99.90;;;;;;6067784;23;20056;-80
2023/07/26 08:37:56;;;;;;;4.22;3.75;;;14.10;99.90;;;;;;6067520;23;20440;-79
2023/07/26 08:40:22;;;;;;;5.88;4.05;;;14.10;99.90;;;;;;6091458;23;20048;-80
2023/07/26 08:42:48;;;;;;;6.07;4.55;;;14.30;99.90;;;;;;6091881;23;20341;-79
2023/07/26 08:45:14;;;;;;;4.72;4.30;;;14.40;99.90;;;;;;6092012;23;20022;-80
2023/07/26 08:47:41;;;;;;;6.97;4.50;;;14.50;99.90;;;;;;6094205;23;20015;-81
2023/07/26 08:50:07;;;;;;;5.65;5.10;;;14.70;99.90;;;;;;6093800;23;20022;-81
2023/07/26 08:52:33;;;;;;;6.60;5.05;;;14.90;99.90;;;;;;6093177;23;20357;-79
2023/07/26 08:55:00;;;;;;;8.23;5.32;;;15.20;99.90;;;;;;6093226;23;20042;-79
2023/07/26 08:57:26;;;;;;;5.88;5.15;;;15.40;99.90;;;;;;6092726;23;20018;-81
2023/07/26 08:59:52;;;;;;;6.13;5.10;;;15.60;99.90;;;;;;6093764;23;20022;-79
2023/07/26 09:02:19;;;;;;;5.60;5.03;;;15.70;99.90;;;;;;6093984;23;20019;-81
2023/07/26 09:04:47;;;;;;;6.07;4.65;;;15.70;99.90;;;;;;6093089;23;20101;-80
2023/07/26 09:07:13;;;;;;;5.63;5.10;;;15.80;99.90;;;;;;6093164;23;20054;-80
2023/07/26 09:09:40;;;;;;;7.15;5.07;;;15.80;99.90;;;;;;6068998;23;20026;-80
2023/07/26 09:12:07;;;;;;;5.40;4.30;;;15.90;99.90;;;;;;6091757;23;20389;-78
2023/07/26 09:14:34;;;;;;;5.65;4.72;;;16.00;99.90;;;;;;6068426;23;20025;-80
2023/07/26 09:17:04;;;;;;;5.65;4.72;;;15.90;99.90;;;;;;6092555;23;20050;-79
2023/07/26 09:19:32;;;;;;;5.00;4.50;;;15.90;99.90;;;;;;6068837;23;20015;-78
2023/07/26 09:22:00;;;;;;;7.65;5.72;;;16.00;99.90;;;;;;6092710;23;20395;-79
2023/07/26 09:24:34;;;;;;;6.35;5.05;;;16.10;99.90;;;;;;6091948;23;20041;-78
2023/07/26 09:27:10;;;;;;;6.75;5.22;;;16.10;99.90;;;;;;6092532;23;20492;-79
2023/07/26 09:29:39;;;;;;;6.22;4.68;;;16.30;99.90;;;;;;6093065;23;20018;-80
2023/07/26 09:32:06;;;;;;;7.32;5.32;;;16.30;99.90;;;;;;6092828;23;20025;-79
2023/07/26 09:34:32;;;;;;;7.32;5.47;;;16.40;99.90;;;;;;6068627;23;20021;-80
2023/07/26 09:36:58;;;;;;;7.30;4.95;;;16.50;99.90;;;;;;6092610;23;20011;-80
2023/07/26 09:39:25;;;;;;;7.45;4.68;;;16.80;99.90;;;;;;6068504;23;20168;-80
2023/07/26 09:42:04;;;;;;;4.63;4.18;;;16.90;99.90;;;;;;6068293;23;20025;-80
2023/07/26 09:44:30;;;;;;;4.35;3.70;;;17.20;99.90;;;;;;6093356;23;20014;-80
2023/07/26 09:46:57;;;;;;;4.07;3.15;;;17.30;99.90;;;;;;6068471;23;20089;-79
2023/07/26 09:49:26;;;;;;;4.78;2.92;;;17.30;99.90;;;;;;6070090;23;20101;-79
2023/07/26 09:51:54;;;;;;;4.80;3.10;;;17.10;99.90;;;;;;6093841;23;20014;-80
2023/07/26 09:54:29;;;;;;;4.78;2.95;;;17.10;99.90;;;;;;6093992;23;20021;-80
2023/07/26 09:56:56;;;;;;;3.50;3.05;;;17.10;99.90;;;;;;6069204;23;20543;-80
2023/07/26 09:59:25;;;;;;;4.32;3.53;;;17.20;99.90;;;;;;6093556;23;20057;-80
2023/07/26 10:01:53;;;;;;;4.50;3.00;;;17.40;99.90;;;;;;6093431;23;20021;-78
2023/07/26 10:04:27;;;;;;;4.13;3.70;;;17.50;99.90;;;;;;6093667;23;20377;-79
2023/07/26 10:06:56;;;;;;;3.83;3.35;;;17.70;99.90;;;;;;6092952;23;20437;-78
2023/07/26 10:09:25;;;;;;;4.07;3.25;;;17.70;99.90;;;;;;6091821;23;20089;-80
2023/07/26 10:11:54;;;;;;;4.38;3.30;;;17.60;99.90;;;;;;6092800;23;20014;-80
2023/07/26 10:14:20;;;;;;;4.53;3.28;;;17.60;99.90;;;;;;6092619;23;20015;-79
2023/07/26 10:16:47;;;;;;;5.05;3.40;;;17.80;99.90;;;;;;6090902;23;20025;-80
2023/07/26 10:19:14;;;;;;;6.97;3.78;;;17.80;99.90;;;;;;6091292;23;20851;-81
2023/07/26 10:21:42;;;;;;;5.00;3.35;;;17.60;99.90;;;;;;6068580;23;20329;-80
2023/07/26 10:24:09;;;;;;;4.40;3.50;;;17.40;99.90;;;;;;6091617;23;20015;-79
2023/07/26 10:26:36;;;;;;;3.95;3.00;;;17.20;99.90;;;;;;6091816;23;20020;-78
2023/07/26 10:29:03;;;;;;;2.50;2.30;;;17.00;99.90;;;;;;6090661;23;20015;-80
2023/07/26 10:31:29;;;;;;;3.50;2.13;;;17.00;99.90;;;;;;6065486;23;20021;-79
2023/07/26 10:33:56;;;;;;;3.30;2.50;;;17.20;99.90;;;;;;6067155;23;20058;-79
2023/07/26 10:36:28;;;;;;;3.30;2.45;;;17.50;99.90;;;;;;6067562;23;20010;-79
2023/07/26 10:38:54;;;;;;;4.25;2.83;;;17.60;99.90;;;;;;6091216;23;20015;-78
2023/07/26 10:41:22;;;;;;;3.55;3.25;;;17.80;99.90;;;;;;6091903;23;20068;-79
2023/07/26 10:43:49;;;;;;;3.45;3.13;;;17.90;99.90;;;;;;6090319;23;20022;-78
2023/07/26 10:46:15;;;;;;;3.17;2.83;;;18.20;99.90;;;;;;6067697;23;20034;-81
2023/07/26 10:48:42;;;;;;;4.40;2.70;;;18.20;99.90;;;;;;6091647;23;20019;-78
2023/07/26 10:51:26;;;;;;;3.22;2.78;;;18.30;99.90;;;;;;6093211;23;20097;-79
2023/07/26 10:53:53;;;;;;;4.50;2.60;;;18.60;99.90;;;;;;6092571;23;20025;-80
2023/07/26 10:56:38;;;;;;;5.68;2.80;;;18.70;99.90;;;;;;6092522;23;20060;-81
2023/07/26 10:59:03;;;;;;;3.92;2.95;;;18.80;99.90;;;;;;6092372;23;20353;-78
2023/07/26 11:01:32;;;;;;;3.50;2.60;;;18.90;99.90;;;;;;6092170;23;20025;-80
2023/07/26 11:03:59;;;;;;;3.85;2.28;;;19.10;99.90;;;;;;6091420;23;20457;-81
2023/07/26 11:06:51;;;;;;;2.88;2.28;;;19.10;99.90;;;;;;6091626;23;20077;-81
2023/07/26 11:09:31;;;;;;;4.63;2.65;;;19.20;99.90;;;;;;6092136;23;20318;-82
2023/07/26 11:11:59;;;;;;;3.22;2.38;;;18.90;99.90;;;;;;6092104;23;20020;-80
2023/07/26 11:14:27;;;;;;;2.75;2.22;;;18.80;99.90;;;;;;6068172;23;20086;-79
2023/07/26 11:16:54;;;;;;;2.70;2.03;;;18.70;99.90;;;;;;6090119;23;20014;-78
2023/07/26 11:19:19;;;;;;;3.15;2.22;;;18.60;99.90;;;;;;6089871;23;20444;-80
2023/07/26 11:21:45;;;;;;;2.45;2.17;;;18.70;99.90;;;;;;6066404;23;20018;-78
2023/07/26 11:24:11;;;;;;;3.25;2.25;;;18.80;99.90;;;;;;6090906;23;20010;-81
2023/07/26 11:26:45;;;;;;;3.88;2.30;;;18.80;99.90;;;;;;6042244;23;20021;-79
2023/07/26 11:29:11;;;;;;;3.60;2.10;;;18.60;99.90;;;;;;6090114;23;20014;-80
2023/07/26 11:31:37;;;;;;;3.70;1.88;;;18.40;99.90;;;;;;6090750;23;20015;-80
2023/07/26 11:34:17;;;;;;;3.00;2.22;;;18.20;99.90;;;;;;6065995;23;20084;-81
2023/07/26 11:36:43;;;;;;;2.88;2.38;;;18.00;99.90;;;;;;6065976;23;20086;-79
2023/07/26 11:39:25;;;;;;;3.65;2.70;;;18.10;99.90;;;;;;6088883;23;20517;-79
2023/07/26 11:41:51;;;;;;;;;;;18.40;99.90;;;;;;6089438;23;20025;-80
2023/07/26 11:44:21;;;;;;;2.55;1.88;;;18.60;99.90;;;;;;6040639;23;19913;-81
2023/07/26 11:46:47;;;;;;;2.15;1.65;;;18.70;99.90;;;;;;6064307;23;20018;-80
2023/07/26 11:49:20;;;;;;;2.13;1.20;;;18.90;99.90;;;;;;6088293;23;20018;-80
2023/07/26 11:51:47;;;;;;;2.22;1.00;;;19.00;99.90;;;;;;6087285;23;20026;-81
2023/07/26 11:54:13;;;;;;;0.70;0.60;;;19.10;99.90;;;;;;6089832;23;20018;-79
2023/07/26 11:56:40;;;;;;;0.93;0.73;;;19.20;99.90;;;;;;6041897;23;1156219;-82
2023/07/26 11:59:07;;;;;;;0.65;0.65;;;19.10;99.90;;;;;;6067410;23;20046;-81
2023/07/26 12:01:34;;;;;;;0.80;0.75;;;19.20;99.90;;;;;;6092437;23;20015;-81
2023/07/26 12:04:00;;;;;;;1.48;0.85;;;19.20;99.90;;;;;;6093018;23;20022;-83
2023/07/26 12:06:33;;;;;;;1.33;0.90;;;19.30;99.90;;;;;;6068977;23;20024;-81
2023/07/26 12:09:09;;;;;;;0.82;0.82;;;19.20;99.90;;;;;;6068803;23;20140;-82
2023/07/26 12:11:39;;;;;;;2.15;1.50;;;19.30;99.90;;;;;;6092945;23;20322;-82
2023/07/26 12:14:05;;;;;;;2.90;1.33;;;19.40;99.90;;;;;;6068900;23;20050;-82
2023/07/26 12:16:31;;;;;;;1.70;1.40;;;19.40;99.90;;;;;;6093196;23;20014;-83
2023/07/26 12:19:00;;;;;;;2.22;1.52;;;19.60;99.90;;;;;;6093867;23;20010;-82
2023/07/26 12:21:27;;;;;;;2.10;1.45;;;19.50;99.90;;;;;;6094367;23;20389;-83
2023/07/26 12:24:03;;;;;;;2.13;1.67;;;19.40;99.90;;;;;;6095698;23;20089;-83
2023/07/26 12:26:31;;;;;;;3.15;1.80;;;19.30;99.90;;;;;;6094597;23;20022;-82
2023/07/26 12:28:59;;;;;;;2.05;1.42;;;19.20;99.90;;;;;;6094886;23;20018;-82
2023/07/26 12:31:30;;;;;;;1.83;1.40;;;19.20;99.90;;;;;;6095893;23;20020;-83
2023/07/26 12:34:11;;;;;;;1.90;1.63;;;19.30;99.90;;;;;;6095434;23;20076;-82
2023/07/26 12:36:36;;;;;;;1.67;1.58;;;19.50;99.90;;;;;;6095425;23;20014;-82
2023/07/26 12:39:04;;;;;;;2.15;1.90;;;19.60;99.90;;;;;;6095691;23;20062;-82
2023/07/26 12:41:30;;;;;;;3.38;1.88;;;19.80;99.90;;;;;;6071791;23;20078;-82
2023/07/26 12:43:56;;;;;;;2.83;1.80;;;19.80;99.90;;;;;;6071870;23;20011;-83